Data for 10/14/2006

Time Sea-Level Adjusted Pressure Absolute Pressure Temperature Relative Humidity Dew Point   
(mb) (inHg) (mb) (inHg) (C) (F) (%) (C) (F)
00:05 1015 29.97 844 24.92 7.5 45.6 69 2.3 36.1
00:10 1015 29.97 844 24.92 7.4 45.4 69 2.2 36
00:15 1015 29.97 844 24.92 7.2 45 68 1.8 35.3
00:20 1015 29.97 844 24.92 7.1 44.8 68 1.7 35
00:25 1015 29.97 844 24.92 7.1 44.7 68 1.6 34.9
00:30 1015 29.97 844 24.92 7 44.6 69 1.8 35.2
00:35 1015 29.97 844 24.92 6.9 44.3 70 1.8 35.3
00:40 1015 29.97 844 24.92 6.7 44.1 71 1.8 35.3
00:45 1015 29.97 844 24.92 6.6 43.8 72 2 35.6
00:50 1015 29.97 844 24.92 6.6 43.9 72 2 35.6
00:55 1015 29.97 844 24.92 6.6 43.9 73 2 35.7
01:00 1015 29.97 844 24.92 6.6 43.9 73 2 35.7
01:05 1015 29.97 844 24.92 6.7 44 72 2 35.6
01:10 1015 29.97 844 24.92 6.7 44.1 72 1.9 35.5
01:15 1015 29.97 844 24.92 6.6 44 71 1.8 35.3
01:20 1015 29.97 844 24.92 6.6 43.9 71 1.8 35.2
01:25 1015 29.97 844 24.92 6.6 43.8 71 1.7 35.1
01:30 1015 29.97 844 24.92 6.5 43.7 71 1.6 34.9
01:35 1015 29.97 844 24.92 6.5 43.6 71 1.6 34.8
01:40 1015 29.97 844 24.92 6.3 43.3 71 1.5 34.7
01:45 1015 29.97 844 24.92 6.3 43.3 71 1.5 34.6
01:50 1015 29.97 844 24.92 6.1 43 72 1.4 34.6
01:55 1015 29.97 844 24.92 6 42.9 72 1.4 34.6
02:00 1015 29.97 844 24.92 5.9 42.6 73 1.3 34.4
02:05 1015 29.97 845 24.95 5.7 42.3 73 1.3 34.3
02:10 1015 29.97 845 24.95 5.6 42 74 1.4 34.5
02:15 1015 29.97 845 24.95 5.2 41.4 75 1.3 34.3
02:20 1015 29.97 845 24.95 5.3 41.5 76 1.3 34.4
02:25 1015 29.97 845 24.95 5.3 41.5 75 1.3 34.3
02:30 1015 29.97 845 24.95 5.4 41.7 74 1.2 34.1
02:35 1015 29.97 845 24.95 5.2 41.3 75 1.2 34.1
02:40 1015 29.97 844 24.92 5 41.1 75 0.9 33.7
02:45 1015 29.97 844 24.92 5 41 76 1.1 34
02:50 1015 29.97 844 24.92 5.2 41.4 75 1.1 34
02:55 1015 29.97 844 24.92 5.5 41.9 74 1.3 34.3
03:00 1015 29.97 845 24.95 5.6 42.1 74 1.3 34.4
03:05 1016 30 845 24.95 5.7 42.2 74 1.3 34.4
03:10 1016 30 845 24.95 5.9 42.6 73 1.3 34.4
03:15 1015 29.97 845 24.95 6 42.9 73 1.5 34.7
03:20 1015 29.97 844 24.92 5.9 42.7 73 1.5 34.7
03:25 1015 29.97 844 24.92 5.8 42.5 74 1.5 34.7
03:30 1015 29.97 844 24.92 6 42.8 73 1.4 34.6
03:35 1015 29.97 844 24.92 6 42.9 72 1.4 34.6
03:40 1015 29.97 844 24.92 6.1 43 72 1.5 34.7
03:45 1015 29.97 844 24.92 6.1 43 72 1.5 34.6
03:50 1015 29.97 844 24.92 5.9 42.7 73 1.4 34.5
03:55 1015 29.97 844 24.92 5.7 42.3 73 1.3 34.4
04:00 1015 29.97 844 24.92 5.5 42 74 1.2 34.2
04:05 1015 29.97 844 24.92 5.5 41.9 73 1.1 34
04:10 1015 29.97 844 24.92 5.4 41.8 74 1.3 34.3
04:15 1015 29.97 844 24.92 5.3 41.5 75 1.3 34.3
04:20 1015 29.97 844 24.92 5.3 41.6 75 1.3 34.3
04:25 1015 29.97 844 24.92 5.4 41.7 76 1.4 34.6
04:30 1015 29.97 844 24.92 5.4 41.8 76 1.5 34.7
04:35 1015 29.97 844 24.92 5.6 42.1 75 1.5 34.7
04:40 1015 29.97 844 24.92 5.7 42.2 74 1.5 34.6
04:45 1015 29.97 844 24.92 5.6 42.1 75 1.5 34.8
04:50 1015 29.97 844 24.92 5.3 41.5 77 1.5 34.6
04:55 1015 29.97 844 24.92 5.3 41.5 75 1.2 34.1
05:00 1015 29.97 844 24.92 5.5 41.9 74 1.2 34.2
05:05 1015 29.97 844 24.92 5.2 41.4 76 1.2 34.2
05:10 1015 29.97 844 24.92 5 41 77 1.3 34.3
05:15 1015 29.97 844 24.92 5 41.1 76 1.2 34.1
05:20 1015 29.97 844 24.92 5.3 41.6 75 1.2 34.1
05:25 1015 29.97 844 24.92 5.7 42.3 73 1.3 34.3
05:30 1015 29.97 844 24.92 5.7 42.3 74 1.5 34.6
05:35 1015 29.97 844 24.92 5.4 41.7 75 1.2 34.2
05:40 1015 29.97 844 24.92 5.5 41.8 74 1.2 34.2
05:45 1015 29.97 844 24.92 5.5 41.9 74 1.4 34.4
05:50 1015 29.97 844 24.92 5.3 41.5 77 1.5 34.7
05:55 1015 29.97 844 24.92 5.1 41.2 78 1.5 34.7
06:00 1015 29.97 844 24.92 5 41 77 1.3 34.3
06:05 1015 29.97 844 24.92 5.2 41.4 76 1.4 34.5
06:10 1015 29.97 844 24.92 5.1 41.3 77 1.5 34.7
06:15 1015 29.97 844 24.92 5 41 77 1.3 34.4
06:20 1015 29.97 844 24.92 5.2 41.4 76 1.2 34.2
06:25 1015 29.97 844 24.92 5.4 41.7 76 1.4 34.6
06:30 1015 29.97 844 24.92 5.5 41.9 75 1.5 34.7
06:35 1015 29.97 844 24.92 5.6 42 75 1.5 34.6
06:40 1015 29.97 844 24.92 5.5 42 74 1.3 34.3
06:45 1015 29.97 844 24.92 5.5 41.8 74 1.2 34.2
06:50 1015 29.97 844 24.92 5.2 41.4 75 1.2 34.2
06:55 1015 29.97 844 24.92 5.2 41.3 75 1.1 33.9
07:00 1015 29.97 844 24.92 5.3 41.5 74 1.1 34
07:05 1015 29.97 844 24.92 5.4 41.7 75 1.3 34.4
07:10 1015 29.97 844 24.92 5.4 41.8 74 1.3 34.3
07:15 1015 29.97 844 24.92 5.4 41.7 75 1.3 34.3
07:20 1015 29.97 844 24.92 5.3 41.5 75 1.1 34.1
07:25 1015 29.97 844 24.92 5.1 41.3 75 1.1 33.9
07:30 1015 29.97 844 24.92 4.9 40.9 77 1.3 34.3
07:35 1015 29.97 844 24.92 4.7 40.5 78 1.1 34
07:40 1015 29.97 844 24.92 4.5 40.1 77 0.8 33.4
07:45 1015 29.97 844 24.92 4.4 39.9 75 0.4 32.7
07:50 1015 29.97 844 24.92 4.3 39.8 74 0 32.1
07:55 1015 29.97 844 24.92 4.4 40 74 0.3 32.5
08:00 1015 29.97 844 24.92 4.5 40.1 75 0.4 32.8
08:05 1015 29.97 844 24.92 4.5 40.2 76 0.6 33.1
08:10 1015 29.97 844 24.92 4.7 40.5 74 0.4 32.7
08:15 1015 29.97 844 24.92 4.4 39.9 75 0.3 32.6
08:20 1015 29.97 844 24.92 4.2 39.6 74 -0.1 31.9
08:25 1015 29.97 844 24.92 4.2 39.5 73 -0.1 31.8
08:30 1015 29.97 844 24.92 4.4 40 72 -0.1 31.8
08:35 1015 29.97 844 24.92 4.5 40.1 72 -0.1 31.9
08:40 1015 29.97 844 24.92 4.8 40.6 71 -0 31.9
08:45 1015 29.97 844 24.92 5.5 41.9 67 -0.1 31.7
08:50 1015 29.97 844 24.92 5.5 41.8 69 0.3 32.5
08:55 1015 29.97 845 24.95 5.9 42.6 68 0.5 32.9
09:00 1015 29.97 845 24.95 6.8 44.2 66 0.8 33.4
09:05 1015 29.97 845 24.95 7.1 44.7 65 0.9 33.7
09:10 1015 29.97 845 24.95 7 44.6 66 1.1 33.9
09:15 1015 29.97 845 24.95 6.9 44.4 67 1.2 34.1
09:20 1015 29.97 845 24.95 6.4 43.4 69 1.2 34.2
09:25 1016 30 845 24.95 6.5 43.7 69 1.2 34.2
09:30 1016 30 845 24.95 7.3 45.2 65 1.3 34.3
09:35 1016 30 845 24.95 7.8 46.1 64 1.4 34.4
09:40 1016 30 845 24.95 8 46.4 64 1.6 34.8
09:45 1016 30 845 24.95 8.3 46.9 62 1.4 34.5
09:50 1016 30 845 24.95 8.6 47.5 61 1.5 34.8
09:55 1016 30 845 24.95 9.1 48.4 60 1.8 35.2
10:00 1015 29.97 845 24.95 9.6 49.2 58 1.7 35.1
10:05 1015 29.97 845 24.95 9.7 49.4 59 2.1 35.8
10:10 1015 29.97 845 24.95 9.9 49.8 57 1.9 35.4
10:15 1015 29.97 845 24.95 10.3 50.5 56 1.8 35.3
10:20 1015 29.97 845 24.95 10.4 50.8 55 1.7 35.1
10:25 1015 29.97 845 24.95 10.4 50.7 52 0.9 33.7
10:30 1015 29.97 845 24.95 10.3 50.5 53 1.1 33.9
10:35 1015 29.97 845 24.95 10.1 50.2 54 1.1 34.1
10:40 1015 29.97 845 24.95 10.1 50.2 55 1.6 34.9
10:45 1015 29.97 844 24.92 9.8 49.6 56 1.4 34.6
10:50 1015 29.97 844 24.92 10 49.9 54 1.2 34.1
10:55 1015 29.97 844 24.92 10.8 51.4 51 1 33.8
11:00 1015 29.97 844 24.92 10.8 51.4 52 1.3 34.4
11:05 1015 29.97 844 24.92 11.4 52.5 48 0.9 33.6
11:10 1015 29.97 844 24.92 12.4 54.3 47 1.4 34.4
11:15 1015 29.97 844 24.92 13 55.5 45 1.3 34.4
11:20 1015 29.97 844 24.92 12.3 54.2 48 1.8 35.2
11:25 1015 29.97 844 24.92 12.7 54.9 46 1.4 34.4
11:30 1015 29.97 844 24.92 13.2 55.7 45 1.4 34.6
11:35 1015 29.97 844 24.92 12.8 55 46 1.6 34.8
11:40 1015 29.97 844 24.92 13.3 56 43 1.2 34.1
11:45 1015 29.97 844 24.92 13.7 56.6 44 1.9 35.3
11:50 1015 29.97 844 24.92 13.3 55.9 46 1.9 35.4
11:55 1015 29.97 844 24.92 13.6 56.4 44 1.7 35.1
12:00 1015 29.97 844 24.92 14 57.2 44 2.2 35.9
12:05 1015 29.97 844 24.92 13.8 56.9 46 2.5 36.5
12:10 1015 29.97 844 24.92 12.7 54.9 47 1.8 35.3
12:15 1015 29.97 844 24.92 13.9 57 43 1.7 35
12:20 1015 29.97 844 24.92 14.5 58.1 42 1.8 35.3
12:25 1015 29.97 844 24.92 14.8 58.7 41 1.9 35.5
12:30 1015 29.97 844 24.92 15.3 59.6 42 2.4 36.4
12:35 1015 29.97 844 24.92 14.4 57.9 44 2.4 36.3
12:40 1015 29.97 844 24.92 14.7 58.5 42 1.9 35.4
12:45 1015 29.97 844 24.92 14.6 58.3 45 3 37.5
12:50 1015 29.97 844 24.92 14.9 58.8 42 2.1 35.8
12:55 1015 29.97 844 24.92 15.4 59.8 41 2.3 36.2
13:00 1015 29.97 844 24.92 15.6 60.1 39 1.8 35.3
13:05 1015 29.97 844 24.92 15.4 59.8 41 2.5 36.4
13:10 1015 29.97 844 24.92 15.1 59.1 41 2 35.7
13:15 1015 29.97 844 24.92 15.2 59.3 41 2 35.5
13:20 1014 29.94 844 24.92 15.2 59.3 42 2.6 36.7
13:25 1014 29.94 844 24.92 15.5 59.8 39 1.8 35.3
13:30 1014 29.94 843 24.89 16 60.8 38 1.9 35.4
13:35 1014 29.94 843 24.89 16 60.8 39 2.3 36.1
13:40 1014 29.94 843 24.89 15.9 60.7 40 2.4 36.3
13:45 1014 29.94 843 24.89 15.9 60.7 40 2.6 36.7
13:50 1014 29.94 843 24.89 16.6 61.9 38 2.4 36.4
13:55 1014 29.94 843 24.89 17 62.6 35 1.6 34.9
14:00 1014 29.94 843 24.89 17.1 62.7 37 2.5 36.5
14:05 1014 29.94 843 24.89 17.1 62.8 35 1.5 34.6
14:10 1014 29.94 843 24.89 16.9 62.5 35 1.6 34.9
14:15 1014 29.94 843 24.89 16.6 61.8 35 1.2 34.1
14:20 1014 29.94 843 24.89 17.4 63.2 34 1.5 34.6
14:25 1014 29.94 843 24.89 17.4 63.4 34 1.6 35
14:30 1014 29.94 843 24.89 17.5 63.5 33 1.1 34.1
14:35 1013 29.91 843 24.89 17.4 63.4 33 1.3 34.3
14:40 1013 29.91 843 24.89 17.5 63.4 33 1.1 34
14:45 1013 29.91 842 24.86 17.6 63.6 33 1 33.9
14:50 1013 29.91 842 24.86 16.9 62.5 34 0.9 33.6
14:55 1013 29.91 842 24.86 17.3 63.2 33 1 33.9
15:00 1013 29.91 842 24.86 17.7 63.9 31 0.7 33.2
15:05 1013 29.91 842 24.86 18.1 64.5 31 0.8 33.5
15:10 1013 29.91 842 24.86 18.3 65 31 1.1 34
15:15 1013 29.91 842 24.86 18.2 64.8 31 0.7 33.3
15:20 1013 29.91 842 24.86 18.4 65.2 29 0.2 32.4
15:25 1013 29.91 842 24.86 17.3 63.2 32 0.5 32.9
15:30 1013 29.91 842 24.86 17 62.5 31 -0 32
15:35 1013 29.91 842 24.86 17.6 63.7 33 1.1 34
15:40 1013 29.91 842 24.86 18.1 64.6 31 0.8 33.4
15:45 1013 29.91 842 24.86 17.8 64 32 1 33.9
15:50 1012 29.88 842 24.86 17.8 64.1 31 0.5 33
15:55 1012 29.88 842 24.86 18.5 65.3 30 0.7 33.3
16:00 1012 29.88 842 24.86 18.1 64.6 32 1.1 34.1
16:05 1012 29.88 842 24.86 17.2 63 33 0.8 33.4
16:10 1013 29.91 842 24.86 17.7 63.8 32 0.9 33.6
16:15 1012 29.88 842 24.86 18.2 64.8 32 1.5 34.6
16:20 1013 29.91 842 24.86 18.2 64.8 30 0.7 33.3
16:25 1013 29.91 842 24.86 17 62.6 34 1 33.8
16:30 1013 29.91 842 24.86 16.6 61.9 33 0.5 32.9
16:35 1012 29.88 842 24.86 16.9 62.5 32 0.2 32.3
16:40 1012 29.88 842 24.86 17.9 64.2 31 0.5 32.8
16:45 1012 29.88 841 24.83 18.2 64.7 30 0.6 33.1
16:50 1012 29.88 841 24.83 18.6 65.4 30 0.6 33.2
16:55 1012 29.88 841 24.83 18.6 65.5 29 0.5 32.9
17:00 1012 29.88 841 24.83 18.3 64.9 29 0.2 32.4
17:05 1012 29.88 841 24.83 17.8 64.1 32 0.9 33.6
17:10 1012 29.88 841 24.83 17.2 63 32 0.6 33.1
17:15 1012 29.88 841 24.83 17 62.6 32 0.1 32.2
17:20 1012 29.88 841 24.83 17.3 63.2 33 1.2 34.1
17:25 1012 29.88 841 24.83 16.9 62.5 33 0.7 33.2
17:30 1012 29.88 841 24.83 17 62.6 31 -0 32
17:35 1012 29.88 841 24.83 17.2 63 32 0.3 32.6
17:40 1012 29.88 841 24.83 17 62.6 34 1 33.8
17:45 1012 29.88 841 24.83 16.5 61.7 33 0.5 32.9
17:50 1012 29.88 841 24.83 16.3 61.3 34 0.6 33
17:55 1012 29.88 841 24.83 16.3 61.4 34 0.4 32.8
18:00 1012 29.88 841 24.83 16.4 61.6 34 0.6 33.1
18:05 1012 29.88 841 24.83 16.6 61.9 33 0.5 33
18:10 1012 29.88 841 24.83 16.5 61.7 34 0.8 33.5
18:15 1012 29.88 841 24.83 16.5 61.7 34 0.7 33.3
18:20 1012 29.88 841 24.83 16.5 61.7 34 0.8 33.5
18:25 1012 29.88 841 24.83 16.5 61.7 35 0.9 33.7
18:30 1012 29.88 841 24.83 16.2 61.2 36 1.1 34
18:35 1012 29.88 841 24.83 15.9 60.6 38 1.7 35.1
18:40 1012 29.88 841 24.83 14.5 58 46 3.2 37.8
18:45 1012 29.88 841 24.83 13.8 56.8 50 3.7 38.7
18:50 1012 29.88 841 24.83 13 55.3 51 3 37.4
18:55 1012 29.88 841 24.83 12.2 54 51 2.5 36.4
19:00 1012 29.88 841 24.83 11.9 53.3 52 2.5 36.4
19:05 1011 29.85 841 24.83 11.6 52.9 52 2.3 36.1
19:10 1012 29.88 841 24.83 11.3 52.4 53 2.1 35.7
19:15 1012 29.88 841 24.83 11.1 51.9 54 2.1 35.7
19:20 1012 29.88 841 24.83 10.8 51.5 54 1.9 35.5
19:25 1011 29.85 841 24.83 10.6 51 55 2 35.7
19:30 1012 29.88 841 24.83 10 50 58 2.1 35.8
19:35 1012 29.88 841 24.83 9.8 49.6 57 1.7 35
19:40 1012 29.88 841 24.83 9.8 49.6 57 1.6 34.9
19:45 1012 29.88 841 24.83 9.6 49.3 56 1.3 34.4
19:50 1012 29.88 841 24.83 9.5 49.1 57 1.3 34.4
19:55 1012 29.88 841 24.83 9.4 48.9 54 0.7 33.3
20:00 1012 29.88 841 24.83 9.6 49.2 54 0.6 33.2
20:05 1012 29.88 841 24.83 9.6 49.3 53 0.5 32.9
20:10 1012 29.88 841 24.83 9.9 49.7 51 0.2 32.3
20:15 1012 29.88 841 24.83 10 49.9 50 0.1 32.2
20:20 1012 29.88 841 24.83 10.2 50.4 48 -0.2 31.7
20:25 1011 29.85 841 24.83 10.3 50.5 49 0.1 32.1
20:30 1011 29.85 841 24.83 9.9 49.8 48 -0.5 31.1
20:35 1011 29.85 841 24.83 9.8 49.6 49 -0.4 31.4
20:40 1011 29.85 841 24.83 9.4 48.9 50 -0.4 31.2
20:45 1011 29.85 841 24.83 9.2 48.6 50 -0.5 31.1
20:50 1011 29.85 840 24.81 9.4 49 46 -1.5 29.3
20:55 1011 29.85 840 24.81 9.9 49.8 46 -1.2 29.9
21:00 1011 29.85 840 24.81 9.7 49.5 47 -0.9 30.4
21:05 1011 29.85 840 24.81 9.5 49.1 48 -1 30.2
21:10 1011 29.85 840 24.81 9.5 49 48 -0.9 30.3
21:15 1011 29.85 840 24.81 9.1 48.4 50 -0.8 30.6
21:20 1011 29.85 840 24.81 8.7 47.7 51 -0.7 30.8
21:25 1011 29.85 840 24.81 8.5 47.4 51 -0.9 30.4
21:30 1011 29.85 840 24.81 8.8 47.8 52 -0.6 30.9
21:35 1011 29.85 840 24.81 8.5 47.4 54 -0.3 31.4
21:40 1011 29.85 840 24.81 8.2 46.8 54 -0.4 31.3
21:45 1011 29.85 840 24.81 7.9 46.2 54 -0.9 30.3
21:50 1011 29.85 840 24.81 7.9 46.3 53 -1 30.2
21:55 1011 29.85 840 24.81 8.1 46.5 53 -1 30.2
22:00 1011 29.85 840 24.81 8.4 47.2 50 -1.3 29.6
22:05 1011 29.85 840 24.81 8.5 47.3 51 -1 30.2
22:10 1011 29.85 840 24.81 8.4 47.1 51 -1.1 30.1
22:15 1011 29.85 840 24.81 8.4 47.1 51 -1 30.1
22:20 1011 29.85 840 24.81 8.2 46.8 52 -0.9 30.3
22:25 1011 29.85 840 24.81 8.2 46.7 52 -1.1 30.1
22:30 1011 29.85 840 24.81 8.1 46.6 52 -1.1 30
22:35 1011 29.85 840 24.81 8 46.5 52 -1.1 30
22:40 1011 29.85 840 24.81 8 46.5 52 -1.2 29.8
22:45 1011 29.85 840 24.81 8.1 46.6 51 -1.4 29.5
22:50 1011 29.85 840 24.81 8.2 46.8 50 -1.4 29.4
22:55 1011 29.85 840 24.81 8.2 46.8 50 -1.4 29.4
23:00 1011 29.85 840 24.81 8.1 46.5 51 -1.3 29.6
23:05 1011 29.85 840 24.81 7.9 46.2 50 -1.7 28.9
23:10 1011 29.85 840 24.81 8.1 46.5 50 -1.6 29.1
23:15 1011 29.85 840 24.81 8 46.4 51 -1.5 29.3
23:20 1011 29.85 840 24.81 7.9 46.2 52 -1.3 29.7
23:25 1011 29.85 840 24.81 7.8 46 53 -1.2 29.8
23:30 1011 29.85 840 24.81 7.9 46.2 52 -1.4 29.6
23:35 1011 29.85 840 24.81 7.9 46.3 52 -1.4 29.5
23:40 1011 29.85 840 24.81 7.9 46.2 51 -1.6 29.1
23:45 1011 29.85 840 24.81 8.2 46.7 50 -1.6 29.1
23:50 1011 29.85 840 24.81 8.4 47.1 49 -1.7 29
23:55 1011 29.85 840 24.81 8.6 47.4 49 -1.5 29.4
24:00 1011 29.85 840 24.81 8.4 47.1 51 -1.1 30